createdAt,value
2022-08-01T00:00:27.238Z,20.19
2022-08-01T00:01:24.220Z,20.24
2022-08-01T00:02:21.025Z,19.54
2022-08-01T00:03:17.818Z,20.21
2022-08-01T00:04:14.542Z,20.09
2022-08-01T00:05:11.827Z,20.36
2022-08-01T00:06:08.589Z,20.43
2022-08-01T00:07:05.671Z,20.45
2022-08-01T00:08:02.407Z,20.42
2022-08-01T00:08:59.185Z,20.30
2022-08-01T00:09:55.896Z,20.33
2022-08-01T00:10:52.706Z,19.61
2022-08-01T00:11:49.474Z,20.36
2022-08-01T00:12:56.766Z,20.07
2022-08-01T00:13:53.696Z,20.27
2022-08-01T00:14:50.577Z,20.18
2022-08-01T00:15:53.937Z,20.33
2022-08-01T00:16:51.238Z,20.39
2022-08-01T00:17:47.962Z,19.49
2022-08-01T00:18:44.784Z,20.36
2022-08-01T00:19:41.898Z,20.23
2022-08-01T00:20:38.690Z,20.20
2022-08-01T00:21:35.375Z,19.70
2022-08-01T00:22:32.953Z,20.37
2022-08-01T00:23:29.688Z,20.25
2022-08-01T00:24:26.730Z,19.73
2022-08-01T00:25:33.825Z,20.34
2022-08-01T00:26:31.239Z,19.90
2022-08-01T00:27:28.245Z,19.36
2022-08-01T00:28:25.186Z,20.10
2022-08-01T00:30:11.448Z,19.55
2022-08-01T00:30:38.652Z,19.20
2022-08-01T00:31:35.418Z,18.90
2022-08-01T00:32:32.802Z,18.62
2022-08-01T00:33:29.555Z,18.94
2022-08-01T00:34:26.310Z,18.74
2022-08-01T00:35:23.307Z,18.83
2022-08-01T00:36:20.066Z,18.67
2022-08-01T00:37:17.308Z,18.75
2022-08-01T00:38:14.049Z,18.71
2022-08-01T00:39:10.820Z,17.80
2022-08-01T00:40:08.649Z,18.48
2022-08-01T00:41:05.409Z,17.97
2022-08-01T00:42:08.601Z,18.05
2022-08-01T00:43:05.426Z,18.56
2022-08-01T00:44:06.646Z,18.76
2022-08-01T00:45:03.754Z,18.50
2022-08-01T00:46:00.573Z,18.70
2022-08-01T00:46:57.229Z,18.42
2022-08-01T00:47:55.102Z,18.22
2022-08-01T00:48:52.327Z,17.87
2022-08-01T00:49:49.188Z,18.10
2022-08-01T00:50:46.594Z,18.35
2022-08-01T00:51:43.799Z,18.35
2022-08-01T00:52:42.041Z,18.12
2022-08-01T00:53:51.792Z,17.68
2022-08-01T00:54:49.474Z,18.43
2022-08-01T00:55:48.918Z,18.39
2022-08-01T00:56:45.938Z,18.32
2022-08-01T00:58:03.681Z,17.70
2022-08-01T00:59:00.360Z,18.42
2022-08-01T00:59:57.436Z,18.24
2022-08-01T01:00:55.905Z,18.13
2022-08-01T01:02:01.728Z,18.22
2022-08-01T01:02:58.631Z,17.74
2022-08-01T01:03:59.205Z,18.23
2022-08-01T01:04:56.401Z,17.65
2022-08-01T01:06:24.834Z,18.46
2022-08-01T01:07:36.190Z,18.34
2022-08-01T01:08:47.562Z,18.29
2022-08-01T01:09:52.011Z,18.15
2022-08-01T01:11:07.832Z,18.25
2022-08-01T01:12:36.005Z,17.75
2022-08-01T01:13:50.162Z,18.42
2022-08-01T01:14:49.995Z,18.11
2022-08-01T01:15:52.639Z,17.90
2022-08-01T01:16:51.026Z,17.92
2022-08-01T01:17:58.443Z,18.25
2022-08-01T01:18:59.267Z,17.98
2022-08-01T01:20:02.059Z,18.20
2022-08-01T01:21:48.232Z,18.01
2022-08-01T01:22:54.046Z,18.19
2022-08-01T01:24:12.047Z,18.19
2022-08-01T01:25:38.237Z,18.18
2022-08-01T01:26:44.926Z,18.06
2022-08-01T01:27:47.457Z,18.05
2022-08-01T01:29:17.882Z,17.89
2022-08-01T01:30:15.273Z,18.00
2022-08-01T01:31:16.098Z,18.01
2022-08-01T01:32:38.530Z,17.68
2022-08-01T01:33:47.439Z,17.30
2022-08-01T01:34:50.135Z,18.07
2022-08-01T01:35:52.330Z,18.14
2022-08-01T01:36:53.105Z,18.22
2022-08-01T01:37:56.106Z,18.25
2022-08-01T01:38:56.003Z,18.24
2022-08-01T01:39:55.438Z,18.32
2022-08-01T01:40:55.006Z,18.01
2022-08-01T01:41:55.761Z,18.24
2022-08-01T01:42:54.023Z,18.50
2022-08-01T01:43:53.035Z,17.83
2022-08-01T01:44:52.464Z,18.62
2022-08-01T01:45:52.857Z,17.59
2022-08-01T01:46:53.101Z,17.96
2022-08-01T01:47:51.383Z,18.55
2022-08-01T01:48:49.749Z,18.59
2022-08-01T01:49:50.502Z,18.32
2022-08-01T01:50:49.715Z,18.42
2022-08-01T01:52:02.220Z,18.48
2022-08-01T01:53:01.976Z,18.58
2022-08-01T01:54:02.096Z,18.70
2022-08-01T01:55:03.339Z,18.86
2022-08-01T01:56:03.116Z,18.99
2022-08-01T01:57:02.847Z,18.92
2022-08-01T01:58:01.846Z,18.29
2022-08-01T01:59:02.159Z,19.06
2022-08-01T02:00:01.724Z,18.78
2022-08-01T02:01:03.547Z,17.74
2022-08-01T02:02:08.909Z,18.88
2022-08-01T02:03:10.107Z,19.18
2022-08-01T02:04:07.923Z,19.25
2022-08-01T02:05:09.475Z,19.17
2022-08-01T02:06:08.018Z,18.79
2022-08-01T02:07:09.899Z,19.17
2022-08-01T02:08:09.210Z,19.18
2022-08-01T02:09:09.780Z,19.18
2022-08-01T02:10:08.155Z,19.31
2022-08-01T02:11:22.472Z,19.24
2022-08-01T02:12:22.655Z,19.41
2022-08-01T02:13:19.751Z,19.42
2022-08-01T02:14:19.895Z,19.43
2022-08-01T02:15:19.351Z,19.45
2022-08-01T02:16:18.285Z,19.44
2022-08-01T02:17:19.726Z,18.93
2022-08-01T02:18:17.186Z,19.44
2022-08-01T02:19:21.567Z,19.48
2022-08-01T02:20:18.910Z,19.35
2022-08-01T02:21:26.166Z,19.45
2022-08-01T02:22:29.790Z,18.99
2022-08-01T02:23:32.390Z,18.35
2022-08-01T02:24:49.443Z,19.55
2022-08-01T02:26:09.463Z,19.57
2022-08-01T02:27:16.753Z,19.43
2022-08-01T02:28:29.654Z,18.96
2022-08-01T02:29:37.788Z,18.51
2022-08-01T02:30:38.612Z,18.73
2022-08-01T02:31:42.291Z,19.32
2022-08-01T02:32:55.195Z,19.28
2022-08-01T02:34:06.980Z,19.49
2022-08-01T02:35:11.067Z,19.53
2022-08-01T02:36:29.097Z,19.58
2022-08-01T02:37:29.950Z,19.28
2022-08-01T02:38:32.591Z,19.51
2022-08-01T02:39:32.665Z,19.17
2022-08-01T02:40:36.628Z,19.22
2022-08-01T02:41:39.689Z,19.25
2022-08-01T02:42:39.948Z,19.37
2022-08-01T02:43:44.842Z,18.98
2022-08-01T02:44:51.128Z,18.58
2022-08-01T02:45:55.349Z,18.23
2022-08-01T02:47:03.279Z,17.60
2022-08-01T02:48:10.678Z,17.99
2022-08-01T02:49:11.396Z,18.07
2022-08-01T02:50:12.442Z,18.01
2022-08-01T02:51:12.820Z,17.93
2022-08-01T02:52:14.738Z,17.77
2022-08-01T02:53:15.312Z,17.52
2022-08-01T02:54:13.132Z,17.25
2022-08-01T02:55:12.369Z,17.35
2022-08-01T02:56:12.597Z,17.64
2022-08-01T02:57:13.983Z,17.37
2022-08-01T02:58:15.119Z,17.29
2022-08-01T02:59:19.030Z,17.24
2022-08-01T03:00:20.159Z,17.40
2022-08-01T03:01:19.319Z,16.98
2022-08-01T03:02:18.445Z,17.02
2022-08-01T03:03:17.575Z,17.40
2022-08-01T03:04:18.853Z,16.99
2022-08-01T03:05:18.416Z,17.05
2022-08-01T03:06:17.706Z,17.01
2022-08-01T03:07:17.202Z,17.11
2022-08-01T03:08:19.626Z,17.07
2022-08-01T03:09:19.230Z,17.18
2022-08-01T03:10:18.453Z,17.18
2022-08-01T03:11:16.791Z,17.17
2022-08-01T03:12:24.874Z,17.05
2022-08-01T03:13:23.154Z,17.00
2022-08-01T03:14:23.752Z,17.48
2022-08-01T03:15:27.162Z,17.55
2022-08-01T03:16:27.422Z,17.33
2022-08-01T03:17:27.860Z,17.14
2022-08-01T03:18:27.802Z,17.40
2022-08-01T03:19:28.588Z,17.31
2022-08-01T03:20:28.248Z,16.96
2022-08-01T03:21:28.646Z,17.19
2022-08-01T03:22:29.179Z,17.29
2022-08-01T03:23:38.119Z,16.96
2022-08-01T03:24:39.111Z,17.73
2022-08-01T03:25:39.718Z,17.70
2022-08-01T03:26:37.745Z,17.54
2022-08-01T03:27:38.452Z,17.13
2022-08-01T03:28:38.203Z,17.27
2022-08-01T03:29:37.010Z,17.58
2022-08-01T03:30:36.739Z,17.59
2022-08-01T03:31:39.127Z,17.52
2022-08-01T03:32:35.956Z,17.32
2022-08-01T03:33:33.153Z,16.90
2022-08-01T03:34:31.032Z,17.02
2022-08-01T03:35:33.646Z,17.25
2022-08-01T03:36:34.683Z,17.30
2022-08-01T03:38:00.059Z,17.06
2022-08-01T03:39:04.695Z,16.76
2022-08-01T03:40:10.373Z,17.20
2022-08-01T03:41:19.414Z,17.18
2022-08-01T03:42:21.811Z,17.45
2022-08-01T03:43:36.458Z,17.39
2022-08-01T03:44:39.983Z,17.03
2022-08-01T03:45:41.421Z,17.24
2022-08-01T03:46:48.706Z,16.99
2022-08-01T03:47:49.905Z,17.51
2022-08-01T03:48:51.844Z,17.72
2022-08-01T03:49:51.808Z,17.64
2022-08-01T03:50:52.636Z,17.61
2022-08-01T03:51:51.905Z,17.79
2022-08-01T03:52:52.532Z,17.87
2022-08-01T03:53:52.437Z,17.27
2022-08-01T03:54:56.535Z,17.72
2022-08-01T03:55:56.871Z,17.80
2022-08-01T03:56:54.287Z,17.82
2022-08-01T03:57:52.182Z,17.80
2022-08-01T03:58:51.586Z,17.08
2022-08-01T03:59:50.754Z,17.05
2022-08-01T04:00:49.548Z,17.69
2022-08-01T04:01:47.413Z,17.59
2022-08-01T04:02:44.638Z,17.44
2022-08-01T04:03:43.174Z,17.64
2022-08-01T04:04:40.406Z,17.73
2022-08-01T04:05:37.589Z,17.48
2022-08-01T04:06:34.350Z,17.61
2022-08-01T04:07:33.586Z,17.27
2022-08-01T04:08:41.181Z,17.31
2022-08-01T04:09:37.911Z,17.81
2022-08-01T04:10:34.705Z,17.59
2022-08-01T04:11:31.898Z,17.65
2022-08-01T04:12:28.643Z,17.92
2022-08-01T04:13:25.662Z,18.00
2022-08-01T04:14:26.017Z,17.73
2022-08-01T04:15:22.844Z,17.67
2022-08-01T04:16:20.589Z,16.30
2022-08-01T04:17:18.350Z,17.77
2022-08-01T04:18:15.077Z,17.84
2022-08-01T04:19:11.830Z,17.81
2022-08-01T04:20:09.030Z,18.08
2022-08-01T04:21:05.822Z,17.24
2022-08-01T04:22:04.107Z,18.06
2022-08-01T04:23:01.834Z,18.17
2022-08-01T04:24:05.979Z,17.93
2022-08-01T04:25:10.365Z,18.06
2022-08-01T04:26:10.057Z,17.94
2022-08-01T04:27:12.628Z,18.26
2022-08-01T04:28:17.257Z,17.98
2022-08-01T04:29:18.470Z,17.92
2022-08-01T04:30:20.965Z,18.15
2022-08-01T04:31:20.423Z,18.46
2022-08-01T04:32:22.161Z,18.67
2022-08-01T04:33:21.615Z,18.75
2022-08-01T04:34:23.974Z,18.91
2022-08-01T04:35:23.480Z,18.09
2022-08-01T04:36:43.034Z,18.17
2022-08-01T04:37:42.598Z,17.93
2022-08-01T04:38:43.160Z,17.58
2022-08-01T04:39:50.244Z,18.37
2022-08-01T04:40:47.999Z,18.19
2022-08-01T04:41:47.659Z,18.57
2022-08-01T04:42:44.568Z,18.29
2022-08-01T04:43:44.360Z,18.52
2022-08-01T04:44:42.409Z,18.50
2022-08-01T04:45:41.374Z,18.30
2022-08-01T04:46:39.078Z,18.06
2022-08-01T04:47:37.822Z,18.57
2022-08-01T04:48:39.478Z,18.55
2022-08-01T04:49:48.841Z,18.50
2022-08-01T04:50:47.128Z,18.69
2022-08-01T04:51:58.671Z,18.90
2022-08-01T04:52:55.559Z,18.39
2022-08-01T04:53:52.553Z,18.98
2022-08-01T04:54:49.363Z,18.47
2022-08-01T04:55:47.272Z,18.53
2022-08-01T04:56:44.027Z,18.89
2022-08-01T04:57:44.983Z,19.05
2022-08-01T04:58:42.963Z,19.05
2022-08-01T04:59:44.394Z,18.59
2022-08-01T05:00:41.326Z,18.57
2022-08-01T05:01:38.133Z,18.22
2022-08-01T05:02:35.185Z,17.62
2022-08-01T05:03:34.801Z,18.63
2022-08-01T05:04:34.222Z,18.82
2022-08-01T05:05:31.782Z,18.63
2022-08-01T05:06:28.473Z,19.06
2022-08-01T05:07:25.550Z,18.88
2022-08-01T05:08:22.257Z,18.75
2022-08-01T05:09:19.024Z,18.59
2022-08-01T05:10:15.802Z,19.01
2022-08-01T05:11:12.550Z,19.34
2022-08-01T05:12:10.371Z,18.96
2022-08-01T05:13:07.593Z,19.09
2022-08-01T05:14:04.387Z,18.91
2022-08-01T05:15:01.231Z,18.82
2022-08-01T05:15:57.976Z,19.24
2022-08-01T05:16:55.086Z,19.38
2022-08-01T05:17:51.858Z,18.57
2022-08-01T05:18:48.693Z,19.53
2022-08-01T05:19:45.475Z,19.64
2022-08-01T05:20:42.504Z,19.17
2022-08-01T05:21:39.455Z,19.90
2022-08-01T05:22:36.288Z,19.59
2022-08-01T05:23:43.277Z,19.95
2022-08-01T05:24:41.347Z,19.87
2022-08-01T05:25:55.962Z,20.14
2022-08-01T05:26:54.682Z,20.32
2022-08-01T05:27:51.433Z,20.16
2022-08-01T05:28:48.153Z,20.16
2022-08-01T05:29:45.175Z,20.01
2022-08-01T05:30:42.140Z,20.06
2022-08-01T05:31:38.912Z,20.08
2022-08-01T05:32:35.999Z,19.90
2022-08-01T05:33:32.783Z,20.32
2022-08-01T05:34:29.763Z,20.39
2022-08-01T05:35:48.841Z,19.62
2022-08-01T05:36:43.642Z,20.00
2022-08-01T05:37:40.438Z,20.16
2022-08-01T05:38:37.160Z,20.22
2022-08-01T05:39:34.053Z,20.50
2022-08-01T05:40:30.790Z,20.75
2022-08-01T05:41:27.575Z,20.94
2022-08-01T05:42:24.349Z,20.83
2022-08-01T05:43:24.344Z,21.08
2022-08-01T05:44:23.594Z,21.16
2022-08-01T05:45:20.393Z,21.02
2022-08-01T05:46:17.117Z,21.11
2022-08-01T05:47:14.127Z,21.18
2022-08-01T05:48:11.060Z,21.45
2022-08-01T05:49:07.849Z,21.32
2022-08-01T05:50:05.144Z,21.73
2022-08-01T05:51:01.928Z,21.08
2022-08-01T05:51:59.006Z,21.22
2022-08-01T05:52:55.721Z,20.99
2022-08-01T05:53:52.854Z,21.11
2022-08-01T05:54:49.713Z,21.12
2022-08-01T05:55:46.716Z,21.43
2022-08-01T05:56:43.479Z,21.61
2022-08-01T05:57:40.585Z,21.13
2022-08-01T05:58:37.543Z,22.06
2022-08-01T05:59:34.345Z,22.00
2022-08-01T06:00:31.166Z,21.71
2022-08-01T06:01:27.941Z,21.97
2022-08-01T06:02:24.823Z,21.35
2022-08-01T06:03:21.595Z,21.69
2022-08-01T06:04:18.330Z,22.00
2022-08-01T06:05:15.158Z,21.66
2022-08-01T06:06:12.201Z,22.04
2022-08-01T06:07:08.969Z,22.02
2022-08-01T06:08:05.825Z,22.09
2022-08-01T06:09:02.627Z,21.89
2022-08-01T06:09:59.318Z,21.28
2022-08-01T06:10:56.215Z,22.20
2022-08-01T06:11:52.980Z,21.91
2022-08-01T06:12:49.770Z,22.30
2022-08-01T06:13:48.603Z,22.48
2022-08-01T06:14:45.779Z,22.32
2022-08-01T06:15:42.506Z,22.24
2022-08-01T06:16:39.227Z,22.26
2022-08-01T06:17:36.327Z,22.21
2022-08-01T06:18:33.086Z,22.56
2022-08-01T06:19:29.856Z,22.61
2022-08-01T06:20:26.899Z,22.55
2022-08-01T06:21:23.794Z,22.55
2022-08-01T06:22:20.535Z,22.43
2022-08-01T06:23:31.825Z,22.38
2022-08-01T06:24:29.626Z,22.38
2022-08-01T06:25:26.522Z,22.43
2022-08-01T06:26:23.273Z,22.47
2022-08-01T06:27:21.700Z,22.47
2022-08-01T06:28:19.420Z,22.77
2022-08-01T06:29:16.211Z,22.53
2022-08-01T06:30:13.296Z,22.52
2022-08-01T06:31:12.445Z,22.13
2022-08-01T06:32:10.453Z,22.57
2022-08-01T06:33:20.995Z,22.74
2022-08-01T06:34:17.729Z,22.83
2022-08-01T06:35:15.705Z,22.75
2022-08-01T06:36:12.481Z,22.74
2022-08-01T06:37:09.210Z,22.77
2022-08-01T06:38:05.997Z,22.68
2022-08-01T06:39:02.772Z,22.81
2022-08-01T06:40:13.417Z,22.85
2022-08-01T06:41:13.162Z,22.89
2022-08-01T06:42:10.449Z,22.94
2022-08-01T06:43:07.339Z,23.12
2022-08-01T06:44:05.377Z,23.06
2022-08-01T06:45:06.167Z,23.01
2022-08-01T06:46:02.925Z,23.09
2022-08-01T06:46:59.699Z,22.84
2022-08-01T06:47:56.393Z,22.97
2022-08-01T06:48:53.219Z,22.38
2022-08-01T06:49:50.017Z,22.70
2022-08-01T06:50:46.749Z,23.22
2022-08-01T06:51:43.476Z,23.22
2022-08-01T06:52:40.226Z,22.90
2022-08-01T06:53:38.661Z,22.54
2022-08-01T06:54:35.429Z,22.89
2022-08-01T06:55:32.467Z,22.25
2022-08-01T06:56:29.243Z,22.31
2022-08-01T06:57:26.108Z,23.18
2022-08-01T06:58:22.813Z,23.15
2022-08-01T06:59:28.759Z,23.05
2022-08-01T07:00:26.897Z,22.76
2022-08-01T07:01:23.715Z,22.06
2022-08-01T07:02:20.502Z,22.34
2022-08-01T07:03:17.197Z,22.11
2022-08-01T07:04:13.918Z,22.98
2022-08-01T07:05:10.987Z,23.07
2022-08-01T07:06:07.765Z,23.39
2022-08-01T07:07:04.760Z,23.37
2022-08-01T07:08:01.550Z,23.26
2022-08-01T07:09:02.505Z,23.32
2022-08-01T07:10:04.174Z,23.43
2022-08-01T07:11:00.895Z,23.50
2022-08-01T07:11:57.849Z,23.53
2022-08-01T07:12:54.680Z,23.48
2022-08-01T07:13:51.487Z,23.57
2022-08-01T07:14:48.823Z,22.98
2022-08-01T07:15:45.558Z,22.96
2022-08-01T07:16:42.401Z,23.76
2022-08-01T07:17:40.557Z,23.18
2022-08-01T07:18:55.517Z,23.32
2022-08-01T07:19:52.279Z,23.51
2022-08-01T07:20:50.441Z,23.55
2022-08-01T07:21:50.202Z,23.70
2022-08-01T07:22:48.384Z,23.54
2022-08-01T07:23:45.937Z,23.62
2022-08-01T07:24:45.905Z,23.51
2022-08-01T07:25:50.088Z,23.49
2022-08-01T07:26:53.087Z,23.35
2022-08-01T07:27:51.169Z,23.50
2022-08-01T07:28:47.920Z,23.68
2022-08-01T07:29:44.617Z,23.65
2022-08-01T07:30:43.143Z,23.60
2022-08-01T07:31:40.079Z,23.65
2022-08-01T07:32:36.848Z,23.21
2022-08-01T07:33:47.731Z,22.67
2022-08-01T07:34:46.071Z,23.01
2022-08-01T07:35:42.926Z,22.78
2022-08-01T07:36:39.648Z,23.14
2022-08-01T07:37:47.184Z,23.01
2022-08-01T07:38:46.710Z,22.94
2022-08-01T07:39:43.586Z,23.25
2022-08-01T07:40:40.347Z,22.55
2022-08-01T07:41:45.462Z,23.11
2022-08-01T07:42:53.896Z,23.50
2022-08-01T07:43:56.460Z,23.60
2022-08-01T07:45:14.337Z,23.68
2022-08-01T07:46:11.088Z,23.68
2022-08-01T07:47:08.026Z,23.80
2022-08-01T07:48:09.232Z,23.85
2022-08-01T07:49:06.053Z,23.80
2022-08-01T07:50:06.983Z,23.32
2022-08-01T07:51:03.717Z,23.74
2022-08-01T07:52:13.673Z,23.80
2022-08-01T07:53:11.425Z,23.83
2022-08-01T07:54:08.700Z,23.83
2022-08-01T07:55:06.261Z,23.27
2022-08-01T07:56:05.904Z,23.96
2022-08-01T07:57:04.222Z,23.87
2022-08-01T07:58:00.970Z,23.77
2022-08-01T07:58:57.734Z,23.99
2022-08-01T07:59:54.597Z,23.26
2022-08-01T08:00:51.327Z,24.12
2022-08-01T08:01:48.128Z,24.15
2022-08-01T08:02:45.781Z,24.36
2022-08-01T08:03:42.574Z,24.56
2022-08-01T08:04:39.331Z,24.51
2022-08-01T08:05:57.982Z,24.44
2022-08-01T08:06:54.580Z,23.86
2022-08-01T08:07:51.419Z,24.43
2022-08-01T08:08:48.211Z,24.02
2022-08-01T08:09:45.045Z,24.02
2022-08-01T08:10:48.174Z,22.65
2022-08-01T08:11:47.829Z,23.96
2022-08-01T08:12:47.051Z,23.95
2022-08-01T08:13:43.774Z,24.28
2022-08-01T08:14:40.558Z,24.11
2022-08-01T08:15:37.792Z,24.30
2022-08-01T08:16:35.276Z,24.07
2022-08-01T08:17:35.604Z,24.39
2022-08-01T08:18:32.995Z,24.43
2022-08-01T08:19:37.975Z,24.45
2022-08-01T08:20:35.657Z,24.35
2022-08-01T08:21:32.416Z,24.17
2022-08-01T08:22:29.595Z,23.98
2022-08-01T08:23:45.206Z,23.91
2022-08-01T08:24:46.141Z,24.06
2022-08-01T08:25:43.542Z,24.09
2022-08-01T08:26:40.289Z,23.98
2022-08-01T08:27:37.939Z,24.39
2022-08-01T08:28:34.813Z,24.75
2022-08-01T08:29:33.417Z,23.82
2022-08-01T08:30:30.267Z,24.31
2022-08-01T08:31:51.989Z,24.40
2022-08-01T08:32:44.758Z,23.78
2022-08-01T08:33:41.476Z,24.53
2022-08-01T08:34:38.196Z,24.55
2022-08-01T08:35:40.326Z,24.09
2022-08-01T08:36:50.429Z,24.70
2022-08-01T08:37:47.386Z,24.70
2022-08-01T08:38:44.419Z,24.76
2022-08-01T08:39:42.524Z,24.39
2022-08-01T08:40:39.941Z,24.52
2022-08-01T08:41:38.323Z,24.46
2022-08-01T08:42:35.873Z,24.48
2022-08-01T08:43:32.788Z,24.49
2022-08-01T08:44:29.560Z,24.59
2022-08-01T08:45:30.910Z,24.36
2022-08-01T08:46:52.139Z,24.60
2022-08-01T08:47:51.328Z,24.75
2022-08-01T08:48:48.961Z,24.88
2022-08-01T08:49:46.237Z,24.77
2022-08-01T08:50:49.529Z,24.83
2022-08-01T08:51:50.578Z,24.46
2022-08-01T08:52:49.150Z,24.53
2022-08-01T08:53:48.181Z,24.38
2022-08-01T08:54:47.991Z,24.90
2022-08-01T08:55:55.781Z,24.68
2022-08-01T08:56:54.867Z,24.29
2022-08-01T08:57:53.952Z,24.58
2022-08-01T08:58:52.577Z,25.02
2022-08-01T08:59:52.987Z,24.61
2022-08-01T09:00:50.121Z,23.59
2022-08-01T09:01:47.474Z,24.46
2022-08-01T09:02:50.362Z,24.75
2022-08-01T09:03:47.254Z,24.49
2022-08-01T09:04:44.025Z,24.22
2022-08-01T09:05:41.243Z,24.05
2022-08-01T09:06:39.073Z,24.28
2022-08-01T09:07:35.839Z,24.08
2022-08-01T09:08:34.531Z,23.98
2022-08-01T09:09:31.462Z,24.22
2022-08-01T09:10:29.094Z,24.28
2022-08-01T09:11:26.591Z,24.23
2022-08-01T09:12:23.466Z,24.28
2022-08-01T09:13:20.207Z,24.64
2022-08-01T09:14:27.193Z,24.41
2022-08-01T09:15:51.173Z,24.35
2022-08-01T09:16:49.062Z,24.72
2022-08-01T09:17:45.904Z,24.82
2022-08-01T09:18:44.666Z,24.99
2022-08-01T09:19:54.539Z,24.89
2022-08-01T09:20:51.518Z,24.53
2022-08-01T09:21:58.637Z,24.56
2022-08-01T09:22:55.785Z,24.78
2022-08-01T09:23:55.262Z,25.17
2022-08-01T09:25:09.891Z,24.20
2022-08-01T09:26:07.742Z,25.26
2022-08-01T09:27:32.403Z,24.88
2022-08-01T09:28:32.627Z,25.33
2022-08-01T09:29:37.886Z,25.10
2022-08-01T09:30:42.894Z,25.12
2022-08-01T09:31:47.665Z,25.17
2022-08-01T09:33:11.409Z,25.20
2022-08-01T09:34:19.964Z,25.09
2022-08-01T09:35:30.675Z,25.24
2022-08-01T09:36:57.811Z,25.03
2022-08-01T09:38:16.707Z,24.50
2022-08-01T09:39:15.868Z,24.80
2022-08-01T09:40:12.703Z,24.53
2022-08-01T09:41:09.547Z,25.04
2022-08-01T09:42:23.498Z,25.18
2022-08-01T09:43:29.344Z,25.34
2022-08-01T09:44:55.150Z,25.72
2022-08-01T09:45:53.352Z,25.20
2022-08-01T09:46:53.793Z,25.40
2022-08-01T09:47:51.343Z,25.55
2022-08-01T09:49:07.342Z,25.50
2022-08-01T09:50:11.056Z,25.44
2022-08-01T09:51:09.580Z,25.14
2022-08-01T09:52:18.338Z,24.71
2022-08-01T09:53:29.540Z,25.48
2022-08-01T09:54:32.550Z,25.63
2022-08-01T09:55:29.360Z,25.69
2022-08-01T09:56:26.777Z,25.66
2022-08-01T09:57:23.711Z,25.41
2022-08-01T09:58:21.550Z,25.19
2022-08-01T09:59:19.610Z,24.98
2022-08-01T10:00:43.678Z,24.83
2022-08-01T10:01:48.286Z,25.06
2022-08-01T10:02:44.986Z,24.42
2022-08-01T10:03:42.500Z,24.96
2022-08-01T10:04:48.567Z,25.04
2022-08-01T10:05:49.997Z,25.12
2022-08-01T10:06:57.166Z,25.40
2022-08-01T10:08:08.001Z,25.07
2022-08-01T10:09:05.276Z,25.06
2022-08-01T10:10:14.699Z,25.30
2022-08-01T10:11:16.576Z,25.44
2022-08-01T10:12:17.644Z,25.67
2022-08-01T10:13:14.717Z,25.64
2022-08-01T10:14:13.209Z,25.70
2022-08-01T10:15:17.820Z,25.61
2022-08-01T10:16:16.695Z,25.85
2022-08-01T10:17:18.547Z,25.77
2022-08-01T10:18:25.253Z,25.91
2022-08-01T10:19:25.211Z,25.78
2022-08-01T10:20:30.828Z,26.04
2022-08-01T10:21:57.229Z,25.45
2022-08-01T10:22:48.286Z,25.62
2022-08-01T10:23:46.501Z,25.42
2022-08-01T10:24:49.204Z,25.39
2022-08-01T10:25:50.009Z,25.46
2022-08-01T10:26:50.179Z,25.61
2022-08-01T10:27:50.494Z,25.61
2022-08-01T10:28:49.767Z,25.21
2022-08-01T10:30:16.785Z,25.61
2022-08-01T10:31:21.147Z,25.69
2022-08-01T10:32:28.889Z,25.70
2022-08-01T10:33:50.407Z,25.56
2022-08-01T10:34:45.018Z,25.73
2022-08-01T10:35:47.099Z,25.52
2022-08-01T10:36:46.950Z,25.20
2022-08-01T10:37:51.856Z,24.80
2022-08-01T10:38:50.405Z,25.75
2022-08-01T10:39:47.256Z,25.08
2022-08-01T10:40:45.804Z,25.93
2022-08-01T10:41:42.908Z,25.56
2022-08-01T10:42:45.305Z,25.75
2022-08-01T10:43:46.871Z,25.39
2022-08-01T10:44:47.304Z,25.42
2022-08-01T10:45:45.788Z,25.36
2022-08-01T10:46:49.554Z,25.93
2022-08-01T10:48:00.039Z,25.65
2022-08-01T10:49:13.036Z,25.70
2022-08-01T10:50:38.730Z,25.87
2022-08-01T10:51:52.725Z,25.59
2022-08-01T10:53:16.608Z,25.67
2022-08-01T10:54:19.987Z,25.73
2022-08-01T10:55:16.762Z,24.92
2022-08-01T10:56:16.619Z,25.54
2022-08-01T10:57:15.486Z,25.32
2022-08-01T10:58:15.731Z,25.34
2022-08-01T10:59:50.114Z,25.42
2022-08-01T11:00:38.918Z,25.40
2022-08-01T11:01:38.924Z,25.56
2022-08-01T11:02:45.587Z,24.71
2022-08-01T11:04:04.359Z,25.49
2022-08-01T11:05:24.387Z,25.51
2022-08-01T11:06:33.765Z,25.09
2022-08-01T11:08:02.135Z,25.85
2022-08-01T11:09:00.940Z,24.84
2022-08-01T11:10:34.250Z,25.75
2022-08-01T11:11:37.548Z,25.62
2022-08-01T11:12:43.994Z,25.33
2022-08-01T11:13:59.137Z,25.59
2022-08-01T11:14:59.504Z,25.85
2022-08-01T11:16:36.197Z,25.78
2022-08-01T11:17:41.771Z,25.86
2022-08-01T11:18:52.078Z,25.52
2022-08-01T11:20:13.735Z,25.09
2022-08-01T11:21:59.415Z,25.60
2022-08-01T11:22:27.556Z,25.62
2022-08-01T11:23:26.400Z,25.72
2022-08-01T11:24:50.665Z,25.70
2022-08-01T11:26:04.584Z,25.68
2022-08-01T11:27:23.842Z,25.73
2022-08-01T11:28:32.245Z,25.64
2022-08-01T11:29:32.216Z,25.96
2022-08-01T11:30:30.701Z,25.97
2022-08-01T11:31:29.477Z,26.25
2022-08-01T11:32:28.074Z,26.25
2022-08-01T11:33:45.889Z,26.26
2022-08-01T11:35:03.669Z,26.37
2022-08-01T11:36:12.573Z,26.38
2022-08-01T11:37:30.626Z,25.58
2022-08-01T11:38:31.057Z,26.27
2022-08-01T11:39:29.497Z,26.05
2022-08-01T11:40:30.142Z,25.64
2022-08-01T11:41:37.331Z,24.86
2022-08-01T11:42:34.677Z,25.28
2022-08-01T11:43:32.343Z,25.79
2022-08-01T11:44:30.470Z,25.82
2022-08-01T11:45:48.442Z,25.95
2022-08-01T11:46:55.146Z,26.06
2022-08-01T11:47:52.879Z,26.21
2022-08-01T11:49:25.942Z,26.09
2022-08-01T11:50:35.147Z,26.12
2022-08-01T11:51:31.953Z,25.91
2022-08-01T11:52:34.596Z,26.18
2022-08-01T11:53:33.201Z,26.28
2022-08-01T11:54:35.267Z,25.97
2022-08-01T11:55:35.774Z,26.10
2022-08-01T11:56:32.756Z,25.32
2022-08-01T11:57:35.695Z,26.05
2022-08-01T11:58:34.658Z,26.14
2022-08-01T11:59:41.408Z,25.78
2022-08-01T12:00:56.870Z,25.86
2022-08-01T12:01:54.211Z,25.59
2022-08-01T12:03:04.840Z,25.45
2022-08-01T12:04:01.762Z,25.62
2022-08-01T12:05:11.664Z,25.49
2022-08-01T12:06:09.222Z,24.79
2022-08-01T12:07:17.461Z,25.26
2022-08-01T12:08:14.239Z,25.45
2022-08-01T12:09:24.502Z,25.40
2022-08-01T12:10:23.956Z,25.41
2022-08-01T12:11:20.800Z,25.88
2022-08-01T12:12:19.119Z,25.89
2022-08-01T12:13:16.493Z,25.40
2022-08-01T12:14:21.060Z,25.83
2022-08-01T12:15:19.799Z,25.49
2022-08-01T12:16:16.533Z,25.69
2022-08-01T12:17:14.086Z,25.65
2022-08-01T12:18:10.918Z,25.59
2022-08-01T12:19:08.263Z,25.66
2022-08-01T12:20:12.095Z,25.65
2022-08-01T12:21:09.818Z,25.84
2022-08-01T12:22:08.294Z,25.78
2022-08-01T12:23:08.432Z,25.23
2022-08-01T12:24:05.388Z,25.70
2022-08-01T12:25:12.994Z,25.91
2022-08-01T12:26:28.412Z,25.93
2022-08-01T12:27:29.718Z,26.02
2022-08-01T12:28:26.441Z,26.04
2022-08-01T12:29:45.085Z,25.24
2022-08-01T12:30:42.675Z,25.59
2022-08-01T12:31:39.405Z,25.84
2022-08-01T12:32:39.333Z,25.67
2022-08-01T12:33:36.132Z,25.54
2022-08-01T12:34:35.190Z,25.21
2022-08-01T12:35:33.369Z,25.94
2022-08-01T12:36:31.261Z,25.67
2022-08-01T12:37:28.127Z,25.66
2022-08-01T12:38:26.117Z,25.90
2022-08-01T12:39:22.954Z,25.41
2022-08-01T12:40:21.310Z,26.18
2022-08-01T12:41:18.082Z,25.84
2022-08-01T12:42:15.968Z,25.59
2022-08-01T12:43:21.220Z,26.08
2022-08-01T12:44:28.937Z,26.29
2022-08-01T12:45:28.479Z,26.19
2022-08-01T12:46:27.129Z,26.23
2022-08-01T12:47:25.651Z,26.16
2022-08-01T12:48:22.664Z,25.48
2022-08-01T12:49:19.978Z,26.26
2022-08-01T12:50:21.045Z,26.30
2022-08-01T12:51:17.941Z,26.38
2022-08-01T12:52:18.248Z,25.96
2022-08-01T12:53:16.875Z,26.33
2022-08-01T12:54:13.845Z,26.32
2022-08-01T12:55:15.280Z,26.16
2022-08-01T12:56:12.469Z,26.23
2022-08-01T12:57:24.013Z,26.64
2022-08-01T12:58:21.624Z,26.49
2022-08-01T12:59:28.368Z,26.43
2022-08-01T13:00:27.868Z,26.43
2022-08-01T13:01:28.216Z,26.36
2022-08-01T13:02:33.554Z,25.62
2022-08-01T13:03:30.357Z,26.22
2022-08-01T13:04:27.497Z,26.28
2022-08-01T13:05:25.938Z,25.96
2022-08-01T13:06:22.722Z,25.75
2022-08-01T13:07:19.676Z,26.47
2022-08-01T13:08:19.806Z,26.49
2022-08-01T13:09:16.753Z,26.42
2022-08-01T13:10:15.631Z,26.49
2022-08-01T13:11:19.048Z,25.95